createdAt,value
2017-09-18T00:00:28.408Z,1.97
2017-09-18T00:02:56.729Z,3.47
2017-09-18T00:05:25.066Z,1.70
2017-09-18T00:07:53.369Z,1.53
2017-09-18T00:10:21.663Z,2.40
2017-09-18T00:12:49.945Z,6.80
2017-09-18T00:15:18.223Z,4.10
2017-09-18T00:17:46.530Z,1.87
2017-09-18T00:20:14.935Z,1.60
2017-09-18T00:22:43.233Z,3.13
2017-09-18T00:25:11.531Z,1.53
2017-09-18T00:27:39.807Z,1.87
2017-09-18T00:30:08.114Z,2.20
2017-09-18T00:32:36.388Z,1.63
2017-09-18T00:35:04.694Z,2.40
2017-09-18T00:37:32.986Z,4.00
2017-09-18T00:40:01.260Z,1.50
2017-09-18T00:42:29.575Z,2.70
2017-09-18T00:44:58.628Z,2.20
2017-09-18T00:47:26.924Z,2.47
2017-09-18T00:49:55.268Z,2.33
2017-09-18T00:52:23.559Z,1.80
2017-09-18T00:54:51.834Z,2.07
2017-09-18T00:57:20.882Z,1.70
2017-09-18T00:59:49.186Z,2.77
2017-09-18T01:02:17.492Z,2.40
2017-09-18T01:04:45.775Z,2.53
2017-09-18T01:07:14.055Z,5.63
2017-09-18T01:09:42.342Z,2.40
2017-09-18T01:12:10.670Z,2.13
2017-09-18T01:14:39.718Z,3.10
2017-09-18T01:17:08.003Z,1.90
2017-09-18T01:19:36.287Z,2.30
2017-09-18T01:22:04.590Z,3.33
2017-09-18T01:24:32.899Z,2.23
2017-09-18T01:27:01.188Z,5.03
2017-09-18T01:29:29.493Z,5.43
2017-09-18T01:31:57.788Z,2.13
2017-09-18T01:34:26.080Z,2.47
2017-09-18T01:36:55.313Z,5.13
2017-09-18T01:39:24.373Z,1.60
2017-09-18T01:41:52.655Z,2.03
2017-09-18T01:44:20.966Z,1.93
2017-09-18T01:46:49.255Z,2.50
2017-09-18T01:49:17.530Z,2.40
2017-09-18T01:51:45.807Z,3.80
2017-09-18T01:54:14.088Z,2.93
2017-09-18T01:56:42.399Z,2.40
2017-09-18T01:59:10.684Z,2.27
2017-09-18T02:01:38.996Z,3.93
2017-09-18T02:04:07.292Z,4.30
2017-09-18T02:06:36.343Z,2.83
2017-09-18T02:09:04.651Z,4.27
2017-09-18T02:11:32.931Z,1.80
2017-09-18T02:14:01.566Z,2.67
2017-09-18T02:16:30.695Z,3.63
2017-09-18T02:18:59.776Z,7.93
2017-09-18T02:21:28.069Z,1.77
2017-09-18T02:23:56.508Z,3.00
2017-09-18T02:26:24.815Z,2.53
2017-09-18T02:28:53.093Z,2.67
2017-09-18T02:31:21.395Z,2.50
2017-09-18T02:33:49.687Z,3.20
2017-09-18T02:36:17.966Z,2.93
2017-09-18T02:38:46.254Z,6.00
2017-09-18T02:41:14.539Z,2.40
2017-09-18T02:43:42.858Z,2.90
2017-09-18T02:46:11.456Z,2.87
2017-09-18T02:48:39.830Z,3.77
2017-09-18T02:51:08.117Z,2.60
2017-09-18T02:53:36.392Z,3.00
2017-09-18T02:56:04.671Z,2.13
2017-09-18T02:58:32.955Z,2.53
2017-09-18T03:01:01.284Z,13.73
2017-09-18T03:03:29.592Z,2.10
2017-09-18T03:05:57.915Z,2.50
2017-09-18T03:08:26.299Z,2.90
2017-09-18T03:10:54.924Z,3.93
2017-09-18T03:13:23.201Z,3.47
2017-09-18T03:15:51.484Z,3.40
2017-09-18T03:18:19.814Z,3.10
2017-09-18T03:20:48.091Z,2.70
2017-09-18T03:23:16.377Z,118.60
2017-09-18T03:25:44.679Z,3.23
2017-09-18T03:28:12.991Z,2.50
2017-09-18T03:30:42.064Z,3.07
2017-09-18T03:33:10.374Z,7.30
2017-09-18T03:35:38.679Z,6.70
2017-09-18T03:38:07.752Z,3.00
2017-09-18T03:40:36.026Z,7.60
2017-09-18T03:43:04.338Z,4.53
2017-09-18T03:45:32.638Z,2.77
2017-09-18T03:48:02.428Z,2.63
2017-09-18T03:50:30.738Z,3.07
2017-09-18T03:52:59.079Z,6.90
2017-09-18T03:55:27.371Z,2.27
2017-09-18T03:57:55.718Z,3.77
2017-09-18T04:00:24.282Z,2.70
2017-09-18T04:02:52.563Z,2.40
2017-09-18T04:05:20.840Z,2.93
2017-09-18T04:07:49.115Z,3.87
2017-09-18T04:10:18.157Z,5.20
2017-09-18T04:12:46.430Z,7.37
2017-09-18T04:15:15.044Z,5.17
2017-09-18T04:17:43.364Z,2.83
2017-09-18T04:20:11.658Z,3.53
2017-09-18T04:22:39.986Z,6.13
2017-09-18T04:25:08.266Z,6.73
2017-09-18T04:27:36.658Z,7.97
2017-09-18T04:30:04.942Z,9.20
2017-09-18T04:32:33.987Z,5.70
2017-09-18T04:35:02.298Z,4.83
2017-09-18T04:37:30.591Z,3.90
2017-09-18T04:39:58.971Z,7.00
2017-09-18T04:42:27.288Z,10.33
2017-09-18T04:44:56.362Z,12.90
2017-09-18T04:47:24.676Z,7.50
2017-09-18T04:49:52.992Z,11.23
2017-09-18T04:52:22.068Z,10.17
2017-09-18T04:54:50.371Z,7.80
2017-09-18T04:57:19.448Z,7.10
2017-09-18T04:59:47.741Z,5.90
2017-09-18T05:02:16.047Z,6.50
2017-09-18T05:04:45.853Z,7.00
2017-09-18T05:07:14.927Z,8.90
2017-09-18T05:09:43.215Z,9.90
2017-09-18T05:12:11.499Z,7.07
2017-09-18T05:14:39.787Z,12.00
2017-09-18T05:17:08.075Z,12.53
2017-09-18T05:19:36.562Z,20.23
2017-09-18T05:22:04.845Z,26.37
2017-09-18T05:24:33.139Z,16.83
2017-09-18T05:27:01.437Z,15.50
2017-09-18T05:29:29.748Z,15.67
2017-09-18T05:31:58.110Z,16.93
2017-09-18T05:34:26.433Z,13.17
2017-09-18T05:36:54.724Z,24.10
2017-09-18T05:39:23.012Z,20.60
2017-09-18T05:41:51.301Z,19.07
2017-09-18T05:44:19.579Z,14.47
2017-09-18T05:46:48.096Z,22.63
2017-09-18T05:49:16.492Z,24.43
2017-09-18T05:51:44.787Z,36.50
2017-09-18T05:54:13.079Z,16.63
2017-09-18T05:56:41.368Z,21.23
2017-09-18T05:59:10.431Z,26.63
2017-09-18T06:01:38.747Z,47.93
2017-09-18T06:04:07.077Z,22.67
2017-09-18T06:06:36.123Z,35.60
2017-09-18T06:09:04.444Z,39.93
2017-09-18T06:11:32.727Z,42.13
2017-09-18T06:14:01.338Z,47.23
2017-09-18T06:16:29.721Z,42.73
2017-09-18T06:18:58.057Z,40.93
2017-09-18T06:21:26.468Z,39.67
2017-09-18T06:23:54.781Z,58.00
2017-09-18T06:26:23.067Z,55.07
2017-09-18T06:28:51.360Z,44.60
2017-09-18T06:31:19.644Z,50.97
2017-09-18T06:33:47.934Z,54.47
2017-09-18T06:36:16.428Z,70.90
2017-09-18T06:38:44.723Z,92.60
2017-09-18T06:41:13.021Z,82.73
2017-09-18T06:43:41.317Z,112.10
2017-09-18T06:46:10.375Z,114.50
2017-09-18T06:48:38.711Z,97.47
2017-09-18T06:51:07.023Z,98.87
2017-09-18T06:53:35.315Z,74.53
2017-09-18T06:56:04.398Z,82.50
2017-09-18T06:58:32.678Z,60.17
2017-09-18T07:01:00.989Z,55.40
2017-09-18T07:03:30.338Z,39.63
2017-09-18T07:05:58.667Z,37.13
2017-09-18T07:08:26.995Z,37.00
2017-09-18T07:10:55.352Z,43.97
2017-09-18T07:13:23.647Z,47.90
2017-09-18T07:15:52.707Z,34.87
2017-09-18T07:18:21.027Z,31.83
2017-09-18T07:20:49.311Z,25.30
2017-09-18T07:23:17.600Z,23.23
2017-09-18T07:25:46.450Z,26.17
2017-09-18T07:28:14.889Z,33.67
2017-09-18T07:30:43.183Z,25.33
2017-09-18T07:33:11.463Z,32.30
2017-09-18T07:35:39.774Z,40.67
2017-09-18T07:38:08.063Z,40.80
2017-09-18T07:40:36.375Z,36.03
2017-09-18T07:43:04.667Z,26.03
2017-09-18T07:45:33.746Z,32.77
2017-09-18T07:48:02.035Z,21.80
2017-09-18T07:50:30.354Z,24.70
2017-09-18T07:52:59.435Z,15.27
2017-09-18T07:55:27.732Z,20.23
2017-09-18T07:57:56.829Z,25.27
2017-09-18T08:00:25.140Z,30.33
2017-09-18T08:02:53.464Z,17.47
2017-09-18T08:05:21.752Z,22.10
2017-09-18T08:07:50.039Z,21.23
2017-09-18T08:10:18.351Z,19.73
2017-09-18T08:12:46.642Z,16.80
2017-09-18T08:15:14.983Z,14.77
2017-09-18T08:17:43.278Z,16.20
2017-09-18T08:20:11.598Z,16.47
2017-09-18T08:22:39.895Z,14.30
2017-09-18T08:25:08.188Z,16.57
2017-09-18T08:27:36.474Z,19.57
2017-09-18T08:30:04.791Z,15.60
2017-09-18T08:32:33.109Z,14.37
2017-09-18T08:35:01.782Z,12.73
2017-09-18T08:37:30.072Z,12.83
2017-09-18T08:39:59.168Z,9.13
2017-09-18T08:42:27.467Z,10.87
2017-09-18T08:44:55.795Z,11.60
2017-09-18T08:47:24.159Z,14.00
2017-09-18T08:49:52.455Z,9.90
2017-09-18T08:52:21.553Z,19.33
2017-09-18T08:54:50.607Z,15.50
2017-09-18T08:57:18.898Z,12.10
2017-09-18T08:59:47.191Z,9.77
2017-09-18T09:02:15.486Z,8.10
2017-09-18T09:04:43.808Z,8.17
2017-09-18T09:07:13.086Z,5.00
2017-09-18T09:09:41.504Z,4.27
2017-09-18T09:12:09.794Z,5.53
2017-09-18T09:14:38.103Z,5.53
2017-09-18T09:17:07.185Z,5.67
2017-09-18T09:19:35.479Z,5.13
2017-09-18T09:22:03.850Z,4.83
2017-09-18T09:24:32.131Z,3.87
2017-09-18T09:27:00.451Z,3.53
2017-09-18T09:29:28.771Z,3.20
2017-09-18T09:31:57.101Z,5.87
2017-09-18T09:34:25.551Z,3.60
2017-09-18T09:36:53.836Z,3.33
2017-09-18T09:39:22.140Z,2.93
2017-09-18T09:41:50.446Z,4.30
2017-09-18T09:44:18.739Z,3.23
2017-09-18T09:46:47.058Z,6.40
2017-09-18T09:49:15.340Z,3.23
2017-09-18T09:51:43.819Z,3.60
2017-09-18T09:54:12.104Z,3.97
2017-09-18T09:56:40.391Z,3.90
2017-09-18T09:59:08.708Z,2.90
2017-09-18T10:01:36.986Z,3.37
2017-09-18T10:04:05.316Z,3.03
2017-09-18T10:06:34.363Z,2.53
2017-09-18T10:09:02.668Z,3.63
2017-09-18T10:11:30.963Z,3.90
2017-09-18T10:13:59.266Z,3.10
2017-09-18T10:16:27.596Z,3.23
2017-09-18T10:18:55.970Z,2.70
2017-09-18T10:21:24.311Z,3.20
2017-09-18T10:23:52.607Z,4.03
2017-09-18T10:26:20.919Z,3.53
2017-09-18T10:28:50.004Z,4.83
2017-09-18T10:31:18.291Z,2.87
2017-09-18T10:33:46.607Z,7.07
2017-09-18T10:36:15.682Z,3.10
2017-09-18T10:38:43.994Z,3.83
2017-09-18T10:41:12.278Z,5.23
2017-09-18T10:43:40.636Z,2.60
2017-09-18T10:46:08.964Z,3.80
2017-09-18T10:48:38.043Z,3.73
2017-09-18T10:51:06.336Z,2.70
2017-09-18T10:53:34.620Z,7.73
2017-09-18T10:56:02.904Z,4.77
2017-09-18T10:58:31.186Z,3.20
2017-09-18T11:00:59.534Z,4.70
2017-09-18T11:03:28.606Z,2.60
2017-09-18T11:05:56.935Z,3.00
2017-09-18T11:08:25.294Z,2.50
2017-09-18T11:10:53.588Z,4.50
2017-09-18T11:13:21.871Z,3.37
2017-09-18T11:15:50.359Z,3.70
2017-09-18T11:18:18.657Z,2.20
2017-09-18T11:20:46.943Z,2.87
2017-09-18T11:23:16.034Z,4.60
2017-09-18T11:25:44.327Z,2.07
2017-09-18T11:28:12.654Z,5.63
2017-09-18T11:30:40.980Z,5.43
2017-09-18T11:33:09.310Z,1.80
2017-09-18T11:35:37.799Z,1.43
2017-09-18T11:38:06.087Z,6.73
2017-09-18T11:40:34.370Z,1.23
2017-09-18T11:43:02.663Z,1.87
2017-09-18T11:45:30.986Z,1.47
2017-09-18T11:48:00.091Z,1.53
2017-09-18T11:50:28.635Z,2.73
2017-09-18T11:52:57.068Z,2.40
2017-09-18T11:55:26.146Z,1.90
2017-09-18T11:57:54.464Z,3.13
2017-09-18T12:00:23.523Z,3.17
2017-09-18T12:02:51.823Z,1.73
2017-09-18T12:05:20.136Z,1.67
2017-09-18T12:07:48.430Z,2.20
2017-09-18T12:10:17.622Z,2.63
2017-09-18T12:12:45.907Z,1.83
2017-09-18T12:15:14.196Z,1.30
2017-09-18T12:17:42.482Z,1.20
2017-09-18T12:20:10.778Z,1.90
2017-09-18T12:22:39.092Z,1.10
2017-09-18T12:25:08.168Z,2.50
2017-09-18T12:27:36.672Z,1.70
2017-09-18T12:30:04.955Z,8.63
2017-09-18T12:32:33.245Z,1.07
2017-09-18T12:35:01.528Z,1.37
2017-09-18T12:37:29.839Z,1.13
2017-09-18T12:39:58.148Z,0.73
2017-09-18T12:42:27.317Z,1.97
2017-09-18T12:44:55.611Z,2.10
2017-09-18T12:47:24.110Z,1.20
2017-09-18T12:49:52.407Z,0.80
2017-09-18T12:52:20.708Z,0.90
2017-09-18T12:54:49.759Z,1.37
2017-09-18T12:57:18.110Z,2.00
2017-09-18T12:59:47.201Z,1.40
2017-09-18T13:02:16.992Z,2.70
2017-09-18T13:04:45.284Z,1.43
2017-09-18T13:07:13.594Z,2.07
2017-09-18T13:09:41.893Z,1.00
2017-09-18T13:12:10.203Z,1.40
2017-09-18T13:14:39.247Z,1.60
2017-09-18T13:17:07.543Z,2.17
2017-09-18T13:19:35.874Z,1.80
2017-09-18T13:22:04.156Z,2.10
2017-09-18T13:24:32.476Z,2.07
2017-09-18T13:27:00.779Z,3.03
2017-09-18T13:29:29.082Z,1.43
2017-09-18T13:31:57.378Z,3.00
2017-09-18T13:34:25.798Z,1.50
2017-09-18T13:36:54.135Z,1.60
2017-09-18T13:39:22.648Z,1.10
2017-09-18T13:41:51.016Z,1.73
2017-09-18T13:44:19.323Z,1.90
2017-09-18T13:46:47.639Z,1.30
2017-09-18T13:49:15.932Z,3.97
2017-09-18T13:51:44.255Z,1.53
2017-09-18T13:54:13.302Z,2.50
2017-09-18T13:56:41.643Z,2.03
2017-09-18T13:59:10.693Z,2.83
2017-09-18T14:01:38.981Z,3.33
2017-09-18T14:04:08.062Z,1.37
2017-09-18T14:06:36.375Z,2.63
2017-09-18T14:09:04.693Z,1.60
2017-09-18T14:11:33.011Z,1.20
2017-09-18T14:14:01.368Z,0.93
2017-09-18T14:16:29.684Z,1.80
2017-09-18T14:18:58.878Z,0.90
2017-09-18T14:21:27.183Z,2.70
2017-09-18T14:23:57.009Z,1.10
2017-09-18T14:26:26.088Z,0.80
2017-09-18T14:28:54.376Z,2.10
2017-09-18T14:31:22.693Z,1.03
2017-09-18T14:33:51.004Z,1.23
2017-09-18T14:36:19.314Z,0.80
2017-09-18T14:38:47.630Z,1.70
2017-09-18T14:41:15.907Z,5.90
2017-09-18T14:43:44.243Z,2.03
2017-09-18T14:46:13.300Z,1.50
2017-09-18T14:48:41.600Z,1.40
2017-09-18T14:51:09.936Z,1.77
2017-09-18T14:53:38.982Z,1.43
2017-09-18T14:56:07.407Z,3.73
2017-09-18T14:58:35.696Z,1.30
2017-09-18T15:01:04.039Z,1.50
2017-09-18T15:03:32.349Z,3.33
2017-09-18T15:06:00.683Z,1.53
2017-09-18T15:08:29.018Z,1.80
2017-09-18T15:10:57.346Z,2.27
2017-09-18T15:13:25.699Z,3.77
2017-09-18T15:15:54.005Z,1.37
2017-09-18T15:18:22.292Z,3.17
2017-09-18T15:20:50.603Z,1.00
2017-09-18T15:23:18.878Z,3.37
2017-09-18T15:25:47.183Z,4.10
2017-09-18T15:28:15.539Z,1.80
2017-09-18T15:30:43.832Z,7.23
2017-09-18T15:33:12.115Z,1.10
2017-09-18T15:35:40.419Z,0.80
2017-09-18T15:38:08.699Z,0.90
2017-09-18T15:40:37.026Z,2.93
2017-09-18T15:43:05.304Z,1.53
2017-09-18T15:45:33.608Z,0.80
2017-09-18T15:48:01.894Z,0.73
2017-09-18T15:50:31.082Z,2.43
2017-09-18T15:52:59.423Z,0.80
2017-09-18T15:55:27.758Z,0.60
2017-09-18T15:57:56.047Z,1.30
2017-09-18T16:00:24.386Z,2.23
2017-09-18T16:02:52.678Z,1.03
2017-09-18T16:05:20.996Z,0.90
2017-09-18T16:07:49.269Z,0.80
2017-09-18T16:10:17.555Z,1.40
2017-09-18T16:12:46.292Z,1.27
2017-09-18T16:15:14.795Z,1.77
2017-09-18T16:17:43.126Z,0.80
2017-09-18T16:20:11.479Z,0.70
2017-09-18T16:22:39.791Z,0.70
2017-09-18T16:25:08.868Z,0.97
2017-09-18T16:27:37.144Z,0.90
2017-09-18T16:30:05.461Z,1.00
2017-09-18T16:32:33.738Z,0.93
2017-09-18T16:35:03.119Z,0.90
2017-09-18T16:37:31.446Z,1.00
2017-09-18T16:39:59.739Z,0.90
2017-09-18T16:42:28.842Z,1.27
2017-09-18T16:44:57.155Z,1.63
2017-09-18T16:47:26.264Z,0.80
2017-09-18T16:49:55.620Z,1.00
2017-09-18T16:52:24.016Z,0.60
2017-09-18T16:54:52.302Z,0.80
2017-09-18T16:57:20.576Z,0.70
2017-09-18T16:59:48.846Z,0.60
2017-09-18T17:02:17.158Z,1.07
2017-09-18T17:04:45.539Z,0.60
2017-09-18T17:07:13.825Z,0.60
2017-09-18T17:09:42.137Z,0.80
2017-09-18T17:12:10.410Z,1.03
2017-09-18T17:14:38.719Z,1.10
2017-09-18T17:17:07.021Z,0.90
2017-09-18T17:19:35.294Z,0.83
2017-09-18T17:22:03.570Z,0.90
2017-09-18T17:24:31.857Z,2.67
2017-09-18T17:27:00.245Z,4.00
2017-09-18T17:29:28.766Z,2.13
2017-09-18T17:31:57.110Z,3.27
2017-09-18T17:34:25.423Z,5.83
2017-09-18T17:36:53.700Z,1.80
2017-09-18T17:39:22.003Z,2.50
2017-09-18T17:41:50.282Z,2.33
2017-09-18T17:44:18.586Z,2.73
2017-09-18T17:46:46.863Z,2.07
2017-09-18T17:49:15.207Z,2.07
2017-09-18T17:51:43.487Z,1.70
2017-09-18T17:54:11.780Z,1.93
2017-09-18T17:56:40.062Z,1.73
2017-09-18T17:59:08.347Z,2.60
2017-09-18T18:01:36.651Z,1.93
2017-09-18T18:04:04.938Z,1.47
2017-09-18T18:06:33.235Z,1.13
2017-09-18T18:09:02.538Z,1.53
2017-09-18T18:11:30.858Z,1.40
2017-09-18T18:13:59.326Z,2.20
2017-09-18T18:16:27.738Z,1.50
2017-09-18T18:18:56.043Z,1.50
2017-09-18T18:21:24.472Z,1.53
2017-09-18T18:23:52.747Z,1.50
2017-09-18T18:26:21.660Z,1.40
2017-09-18T18:28:49.983Z,1.40
2017-09-18T18:31:19.066Z,1.17
2017-09-18T18:33:47.346Z,1.27
2017-09-18T18:36:15.625Z,0.90
2017-09-18T18:38:43.960Z,1.13
2017-09-18T18:41:12.308Z,2.30
2017-09-18T18:43:40.584Z,1.47
2017-09-18T18:46:08.879Z,1.30
2017-09-18T18:48:37.386Z,1.43
2017-09-18T18:51:05.667Z,1.30
2017-09-18T18:53:33.947Z,2.40
2017-09-18T18:56:02.363Z,2.20
2017-09-18T18:58:30.643Z,2.13
2017-09-18T19:00:58.962Z,3.63
2017-09-18T19:03:28.058Z,5.80
2017-09-18T19:05:57.285Z,5.57
2017-09-18T19:08:26.395Z,4.77
2017-09-18T19:10:55.533Z,9.00
2017-09-18T19:13:23.947Z,4.53
2017-09-18T19:15:52.316Z,3.27
2017-09-18T19:18:20.631Z,4.40
2017-09-18T19:20:48.938Z,2.63
2017-09-18T19:23:17.251Z,2.87
2017-09-18T19:25:45.544Z,2.10
2017-09-18T19:28:14.619Z,3.00
2017-09-18T19:30:42.965Z,4.13
2017-09-18T19:33:11.295Z,1.60
2017-09-18T19:35:39.600Z,2.50
2017-09-18T19:38:07.879Z,2.00
2017-09-18T19:40:36.155Z,1.83
2017-09-18T19:43:04.457Z,7.23
2017-09-18T19:45:32.728Z,3.87
2017-09-18T19:48:01.222Z,8.57
2017-09-18T19:50:29.531Z,4.10
2017-09-18T19:52:57.822Z,3.33
2017-09-18T19:55:26.307Z,3.17
2017-09-18T19:57:55.372Z,1.50
2017-09-18T20:00:24.022Z,1.73
2017-09-18T20:02:53.091Z,1.50
2017-09-18T20:05:21.407Z,2.33
2017-09-18T20:07:49.734Z,1.77
2017-09-18T20:10:18.786Z,1.33
2017-09-18T20:12:47.111Z,1.60
2017-09-18T20:15:15.399Z,1.77
2017-09-18T20:17:44.442Z,1.43
2017-09-18T20:20:12.765Z,1.20
2017-09-18T20:22:41.039Z,1.50
2017-09-18T20:25:09.319Z,1.20
2017-09-18T20:27:37.590Z,1.77
2017-09-18T20:30:05.870Z,1.40
2017-09-18T20:32:34.946Z,2.73
2017-09-18T20:35:03.335Z,1.83
2017-09-18T20:37:31.634Z,1.60
2017-09-18T20:39:59.979Z,1.30
2017-09-18T20:42:28.290Z,1.97
2017-09-18T20:44:56.610Z,2.70
2017-09-18T20:47:24.940Z,3.57
2017-09-18T20:49:53.227Z,3.60
2017-09-18T20:52:21.529Z,3.00
2017-09-18T20:54:49.808Z,4.40
2017-09-18T20:57:19.248Z,1.80
2017-09-18T20:59:47.784Z,2.93
2017-09-18T21:02:16.091Z,5.43
2017-09-18T21:04:44.403Z,3.10
2017-09-18T21:07:12.707Z,3.33
2017-09-18T21:09:41.258Z,2.80
2017-09-18T21:12:09.539Z,2.87
2017-09-18T21:14:38.598Z,2.50
2017-09-18T21:17:06.915Z,3.37
2017-09-18T21:19:35.191Z,3.67
2017-09-18T21:22:03.475Z,2.77
2017-09-18T21:24:31.782Z,2.70
2017-09-18T21:27:00.059Z,4.00
2017-09-18T21:29:28.650Z,5.20
2017-09-18T21:31:56.952Z,6.27
2017-09-18T21:34:26.057Z,5.43
2017-09-18T21:36:54.352Z,6.90
2017-09-18T21:39:23.534Z,6.60
2017-09-18T21:41:51.820Z,6.30
2017-09-18T21:44:20.094Z,5.07
2017-09-18T21:46:48.404Z,4.57
2017-09-18T21:49:16.688Z,5.27
2017-09-18T21:51:44.967Z,4.40
2017-09-18T21:54:13.242Z,4.37
2017-09-18T21:56:41.523Z,4.27
2017-09-18T21:59:09.939Z,4.53
2017-09-18T22:01:38.209Z,4.00
2017-09-18T22:04:06.487Z,3.90
2017-09-18T22:06:34.767Z,4.67
2017-09-18T22:09:03.938Z,4.63
2017-09-18T22:11:32.225Z,5.47
2017-09-18T22:14:00.503Z,6.97
2017-09-18T22:16:28.830Z,8.33
2017-09-18T22:18:57.915Z,8.57
2017-09-18T22:21:26.206Z,5.70
2017-09-18T22:23:54.553Z,5.50
2017-09-18T22:26:22.847Z,4.37
2017-09-18T22:28:51.152Z,4.27
2017-09-18T22:31:19.431Z,4.40
2017-09-18T22:33:47.739Z,5.40
2017-09-18T22:36:16.015Z,6.67
2017-09-18T22:38:44.317Z,4.20
2017-09-18T22:41:12.718Z,4.60
2017-09-18T22:43:40.996Z,4.00
2017-09-18T22:46:09.275Z,4.77
2017-09-18T22:48:37.584Z,4.20
2017-09-18T22:51:05.863Z,4.47
2017-09-18T22:53:34.167Z,4.80
2017-09-18T22:56:02.476Z,4.07
2017-09-18T22:58:31.525Z,5.53
2017-09-18T23:00:59.859Z,4.70
2017-09-18T23:03:28.910Z,4.40
2017-09-18T23:05:57.230Z,5.33
2017-09-18T23:08:25.559Z,5.77
2017-09-18T23:10:54.657Z,5.63
2017-09-18T23:13:23.734Z,7.93
2017-09-18T23:15:52.010Z,6.80
2017-09-18T23:18:20.283Z,6.93
2017-09-18T23:20:48.807Z,6.30
2017-09-18T23:23:17.087Z,6.60
2017-09-18T23:25:45.426Z,7.80
2017-09-18T23:28:14.470Z,6.30
2017-09-18T23:30:42.777Z,5.03
2017-09-18T23:33:11.057Z,6.50
2017-09-18T23:35:39.384Z,5.80
2017-09-18T23:38:07.659Z,7.80
2017-09-18T23:40:35.948Z,10.73
2017-09-18T23:43:04.242Z,6.20
2017-09-18T23:45:32.513Z,6.97
2017-09-18T23:48:00.825Z,12.93
2017-09-18T23:50:29.122Z,6.57
2017-09-18T23:52:58.188Z,5.43
2017-09-18T23:55:26.492Z,6.60
2017-09-18T23:57:54.790Z,4.27
